Time;durP1;ratioP1;P1;durP2;ratioP2;P2;SDS_P1;SDS_P2;PMS_P1;PMS_P2;Temp;Humidity;BMP_temperature;BMP_pressure;BME280_temperature;BME280_humidity;BME280_pressure;Samples;Min_cycle;Max_cycle;Signal;HPM_P1;HPM_P2
2023/12/31 00:00:24;;;;;;;3.22;1.10;;;;;;;8.72;96.51;100159.84;4925075;29;20180;-71
2023/12/31 00:02:49;;;;;;;1.58;1.42;;;;;;;8.70;95.88;100148.66;4929257;29;20082;-72
2023/12/31 00:05:15;;;;;;;1.83;1.63;;;;;;;8.72;96.22;100148.31;4930808;28;20506;-71
2023/12/31 00:07:40;;;;;;;1.80;1.58;;;;;;;8.72;95.99;100153.69;4928422;29;20050;-72
2023/12/31 00:10:06;;;;;;;3.83;1.02;;;;;;;8.68;96.31;100142.09;4916729;29;20557;-71
2023/12/31 00:12:31;;;;;;;3.15;2.00;;;;;;;8.81;95.56;100138.13;4931881;28;20031;-71
2023/12/31 00:14:57;;;;;;;2.22;1.88;;;;;;;8.77;95.26;100143.44;4932826;29;20032;-71
2023/12/31 00:17:22;;;;;;;1.42;1.02;;;;;;;8.79;95.07;100137.69;4928108;29;20043;-72
2023/12/31 00:19:48;;;;;;;0.77;0.77;;;;;;;8.66;95.98;100133.63;4929682;29;20035;-72
2023/12/31 00:22:13;;;;;;;1.33;1.20;;;;;;;8.63;96.31;100127.03;4927171;29;20507;-72
2023/12/31 00:24:40;;;;;;;6.57;1.73;;;;;;;8.79;95.37;100127.75;4929771;29;20039;-72
2023/12/31 00:27:05;;;;;;;1.02;0.95;;;;;;;8.62;95.95;100122.03;4930682;29;20046;-71
2023/12/31 00:29:31;;;;;;;2.83;1.15;;;;;;;8.75;95.49;100124.22;4929104;29;20657;-72
2023/12/31 00:31:56;;;;;;;4.00;1.63;;;;;;;8.59;96.18;100131.59;4925417;29;20562;-73
2023/12/31 00:34:22;;;;;;;1.38;1.20;;;;;;;8.56;96.56;100128.81;4926482;29;20027;-72
2023/12/31 00:36:47;;;;;;;1.10;0.95;;;;;;;8.66;95.93;100118.28;4931471;29;20146;-72
2023/12/31 00:39:14;;;;;;;1.35;1.05;;;;;;;8.58;95.47;100132.72;4928751;29;20624;-72
2023/12/31 00:41:39;;;;;;;0.93;0.93;;;;;;;8.66;96.07;100120.19;4912846;29;20047;-72
2023/12/31 00:44:04;;;;;;;1.77;1.13;;;;;;;8.69;95.72;100119.50;4926036;29;20027;-72
2023/12/31 00:46:30;;;;;;;1.02;0.90;;;;;;;8.69;95.37;100109.53;4923893;29;20048;-72
2023/12/31 00:48:56;;;;;;;1.27;1.15;;;;;;;8.72;95.21;100111.50;4927801;29;20423;-71
2023/12/31 00:51:22;;;;;;;3.50;1.25;;;;;;;8.58;95.86;100100.50;4927894;29;20035;-72
2023/12/31 00:53:48;;;;;;;1.88;1.35;;;;;;;8.50;95.91;100111.44;4929199;29;20617;-73
2023/12/31 00:56:13;;;;;;;1.55;1.05;;;;;;;8.48;96.47;100101.06;4925665;29;20062;-72
2023/12/31 00:58:39;;;;;;;3.00;1.23;;;;;;;8.54;96.29;100107.72;4927268;29;20043;-72
2023/12/31 01:01:04;;;;;;;3.47;1.42;;;;;;;8.54;95.77;100109.59;4923544;29;20043;-72
2023/12/31 01:03:30;;;;;;;6.60;1.65;;;;;;;8.66;95.74;100101.41;4930151;29;20122;-72
2023/12/31 01:06:04;;;;;;;2.40;1.58;;;;;;;8.70;95.65;100092.31;4930796;29;20491;-71
2023/12/31 01:08:30;;;;;;;7.72;0.70;;;;;;;8.69;95.04;100089.97;4916299;29;20036;-72
2023/12/31 01:10:55;;;;;;;0.70;0.70;;;;;;;8.75;94.97;100105.44;4920534;29;20187;-72
2023/12/31 01:13:21;;;;;;;2.03;1.00;;;;;;;8.77;95.21;100105.84;4937524;29;20638;-72
2023/12/31 01:15:46;;;;;;;1.15;1.05;;;;;;;8.70;95.54;100097.66;4934192;29;20031;-72
2023/12/31 01:18:11;;;;;;;7.50;1.50;;;;;;;8.82;94.78;100097.53;4948157;28;20066;-73
2023/12/31 01:20:37;;;;;;;1.80;0.98;;;;;;;8.83;94.83;100107.09;4921538;29;20046;-72
2023/12/31 01:23:03;;;;;;;2.63;1.52;;;;;;;8.91;94.31;100102.63;4927520;29;20032;-72
2023/12/31 01:25:28;;;;;;;1.67;0.85;;;;;;;8.61;95.15;100089.06;4924168;29;20475;-72
2023/12/31 01:27:55;;;;;;;0.88;0.88;;;;;;;8.67;95.26;100093.00;4939429;29;20038;-72
2023/12/31 01:30:24;;;;;;;1.67;0.93;;;;;;;8.85;93.44;100080.69;4926837;29;20048;-73
2023/12/31 01:32:50;;;;;;;0.70;0.70;;;;;;;8.74;94.86;100081.63;4953301;28;20035;-72
2023/12/31 01:35:18;;;;;;;1.85;0.65;;;;;;;8.82;94.39;100086.78;4937576;28;20103;-72
2023/12/31 01:37:44;;;;;;;1.08;0.80;;;;;;;8.74;93.33;100077.03;4926752;29;20047;-71
2023/12/31 01:40:10;;;;;;;0.75;0.68;;;;;;;8.72;94.32;100078.53;4929123;29;20040;-72
2023/12/31 01:42:36;;;;;;;2.35;0.82;;;;;;;8.74;94.06;100081.63;4924482;29;20039;-72
2023/12/31 01:45:03;;;;;;;1.05;0.95;;;;;;;8.66;94.81;100078.03;4925427;29;20039;-71
2023/12/31 01:47:29;;;;;;;2.22;1.08;;;;;;;8.69;95.36;100088.06;4924028;29;20105;-71
2023/12/31 01:49:55;;;;;;;0.80;0.70;;;;;;;8.66;95.44;100077.25;4926314;29;20034;-72
2023/12/31 01:52:22;;;;;;;2.60;0.82;;;;;;;8.80;94.68;100074.84;4928172;29;20380;-71
2023/12/31 01:54:47;;;;;;;0.52;0.52;;;;;;;8.72;94.62;100065.09;4924193;29;20035;-73
2023/12/31 01:57:15;;;;;;;0.98;0.93;;;;;;;8.82;94.93;100065.31;4925832;29;20451;-72
2023/12/31 01:59:41;;;;;;;6.55;0.93;;;;;;;8.85;94.56;100067.25;4923950;29;20039;-72
2023/12/31 02:02:07;;;;;;;0.90;0.75;;;;;;;8.76;94.46;100064.03;4911410;29;20028;-74
2023/12/31 02:04:33;;;;;;;2.10;0.68;;;;;;;8.71;94.46;100063.56;4928230;29;20050;-72
2023/12/31 02:07:02;;;;;;;2.78;0.65;;;;;;;8.77;94.94;100067.47;4911085;29;20473;-73
2023/12/31 02:09:29;;;;;;;1.45;0.65;;;;;;;8.83;94.70;100064.16;4925318;29;20040;-72
2023/12/31 02:11:55;;;;;;;2.97;0.88;;;;;;;8.82;94.55;100062.63;4921196;29;20531;-72
2023/12/31 02:14:20;;;;;;;0.88;0.77;;;;;;;8.83;94.34;100061.47;4920006;29;20119;-71
2023/12/31 02:16:46;;;;;;;0.85;0.80;;;;;;;9.00;93.25;100052.19;4940226;29;20122;-72
2023/12/31 02:19:11;;;;;;;3.25;0.70;;;;;;;8.97;93.40;100056.34;4927730;29;20579;-72
2023/12/31 02:21:37;;;;;;;0.98;0.47;;;;;;;9.03;92.75;100046.09;4924656;29;20539;-74
2023/12/31 02:24:03;;;;;;;1.58;1.38;;;;;;;8.98;92.95;100041.78;4948415;29;20562;-71
2023/12/31 02:26:28;;;;;;;1.58;0.98;;;;;;;8.84;93.56;100054.97;4933006;29;20431;-71
2023/12/31 02:28:54;;;;;;;0.60;0.60;;;;;;;8.86;94.40;100054.63;4942308;29;20075;-72
2023/12/31 02:31:19;;;;;;;2.58;0.77;;;;;;;8.84;94.10;100038.88;4930255;29;20189;-71
2023/12/31 02:33:45;;;;;;;0.60;0.60;;;;;;;8.92;94.81;100034.41;4911232;29;20046;-72
2023/12/31 02:36:10;;;;;;;0.65;0.65;;;;;;;8.88;94.76;100028.19;4931633;29;20499;-71
2023/12/31 02:38:36;;;;;;;0.73;0.68;;;;;;;8.92;94.63;100035.16;4933803;29;20400;-71
2023/12/31 02:41:01;;;;;;;1.40;0.88;;;;;;;8.99;93.99;100024.53;4931989;29;20519;-71
2023/12/31 02:43:27;;;;;;;3.35;1.15;;;;;;;9.01;93.77;100027.66;4928003;29;20495;-71
2023/12/31 02:45:52;;;;;;;1.92;1.70;;;;;;;9.00;93.48;100034.13;4930200;29;20686;-72
2023/12/31 02:48:18;;;;;;;0.93;0.88;;;;;;;9.09;93.46;100021.25;4931915;29;20055;-71
2023/12/31 02:50:43;;;;;;;1.50;0.60;;;;;;;9.06;93.54;100018.50;4916241;29;20055;-71
2023/12/31 02:53:09;;;;;;;2.53;0.55;;;;;;;8.94;93.74;100008.72;4957186;28;20095;-71
2023/12/31 02:55:34;;;;;;;0.95;0.63;;;;;;;9.03;93.38;100008.47;4927702;29;21368;-72
2023/12/31 02:58:00;;;;;;;0.75;0.70;;;;;;;9.04;93.76;100010.81;4930335;29;20032;-72
2023/12/31 03:00:25;;;;;;;0.65;0.65;;;;;;;9.11;93.17;100012.84;4927045;29;21713;-72
2023/12/31 03:02:50;;;;;;;0.50;0.50;;;;;;;9.15;92.48;100007.50;4926718;29;20023;-71
2023/12/31 03:05:16;;;;;;;0.73;0.50;;;;;;;9.20;92.01;100001.81;4912612;29;20107;-72
2023/12/31 03:07:42;;;;;;;0.47;0.47;;;;;;;9.13;92.37;100005.19;4928131;29;20467;-71
2023/12/31 03:10:08;;;;;;;1.00;0.30;;;;;;;9.15;92.73;99996.78;4944158;29;20099;-72
2023/12/31 03:12:33;;;;;;;0.57;0.57;;;;;;;9.00;92.79;99993.84;4928680;29;20035;-72
2023/12/31 03:14:59;;;;;;;2.75;0.70;;;;;;;9.02;93.30;99986.22;4930986;29;20047;-71
2023/12/31 03:17:24;;;;;;;0.63;0.63;;;;;;;8.84;94.12;99987.09;4927105;29;20038;-71
2023/12/31 03:19:50;;;;;;;0.75;0.50;;;;;;;8.92;93.15;99986.81;4929169;29;20074;-71
2023/12/31 03:22:15;;;;;;;1.95;1.05;;;;;;;8.87;93.87;99979.09;4928868;29;20027;-71
2023/12/31 03:24:43;;;;;;;2.30;0.77;;;;;;;9.05;93.27;99982.03;4944343;29;20150;-71
2023/12/31 03:27:09;;;;;;;0.63;0.63;;;;;;;9.04;92.59;99972.44;4930194;29;20070;-71
2023/12/31 03:29:38;;;;;;;1.10;0.60;;;;;;;8.91;93.13;99971.88;4955670;28;20044;-71
2023/12/31 03:32:04;;;;;;;0.50;0.50;;;;;;;9.01;92.89;99968.56;4929552;29;20031;-71
2023/12/31 03:34:29;;;;;;;0.60;0.52;;;;;;;9.05;92.96;99963.25;4914198;29;20040;-71
2023/12/31 03:36:54;;;;;;;0.75;0.60;;;;;;;9.23;92.52;99960.81;4929224;29;20039;-71
2023/12/31 03:39:20;;;;;;;2.55;0.95;;;;;;;9.21;92.13;99952.34;4930608;29;20055;-72
2023/12/31 03:41:46;;;;;;;0.85;0.80;;;;;;;9.26;92.02;99957.41;4926684;29;20024;-71
2023/12/31 03:44:12;;;;;;;0.60;0.60;;;;;;;9.24;92.00;99946.25;4914395;29;20028;-71
2023/12/31 03:46:37;;;;;;;1.05;1.00;;;;;;;9.27;92.53;99937.47;4930225;29;20062;-71
2023/12/31 03:49:03;;;;;;;1.23;0.75;;;;;;;9.27;92.07;99950.91;4928376;29;20556;-71
2023/12/31 03:51:28;;;;;;;0.50;0.50;;;;;;;9.28;91.85;99950.53;4927685;29;20031;-72
2023/12/31 03:53:53;;;;;;;0.90;0.50;;;;;;;9.23;91.40;99950.88;4930247;29;20032;-72
2023/12/31 03:56:20;;;;;;;0.65;0.65;;;;;;;9.20;92.41;99938.13;4930147;29;20035;-71
2023/12/31 03:58:45;;;;;;;2.00;0.50;;;;;;;9.28;92.28;99939.00;4930457;29;20051;-71
2023/12/31 04:01:10;;;;;;;0.88;0.73;;;;;;;9.32;91.63;99935.25;4930904;29;20032;-71
2023/12/31 04:03:39;;;;;;;0.50;0.50;;;;;;;9.24;92.03;99932.81;4913390;29;20032;-71
2023/12/31 04:06:06;;;;;;;1.60;0.93;;;;;;;9.21;92.17;99936.25;4944092;29;20050;-71
2023/12/31 04:08:32;;;;;;;0.40;0.40;;;;;;;9.11;92.97;99924.22;4922060;29;20029;-71
2023/12/31 04:10:58;;;;;;;0.57;0.52;;;;;;;9.26;92.49;99925.94;4958956;28;20043;-71
2023/12/31 04:13:23;;;;;;;1.23;1.13;;;;;;;9.42;91.22;99923.88;4944909;28;20114;-71
2023/12/31 04:15:49;;;;;;;2.92;0.63;;;;;;;9.31;91.40;99916.81;4931221;29;20585;-71
2023/12/31 04:18:14;;;;;;;0.88;0.75;;;;;;;9.22;91.90;99910.91;4930309;29;20023;-71
2023/12/31 04:20:39;;;;;;;0.90;0.52;;;;;;;9.22;92.69;99913.59;4931295;29;20042;-72
2023/12/31 04:23:05;;;;;;;2.17;0.90;;;;;;;9.48;91.01;99910.88;4928737;29;20031;-71
2023/12/31 04:25:30;;;;;;;0.85;0.85;;;;;;;9.28;92.06;99906.78;4930562;29;20043;-73
2023/12/31 04:27:56;;;;;;;1.35;0.57;;;;;;;9.32;92.23;99903.00;4931395;29;20027;-72
2023/12/31 04:30:22;;;;;;;3.22;0.77;;;;;;;9.19;92.44;99903.59;4927068;29;20051;-71
2023/12/31 04:32:51;;;;;;;0.60;0.60;;;;;;;9.06;92.41;99901.13;4930538;29;20032;-71
2023/12/31 04:35:16;;;;;;;0.40;0.40;;;;;;;9.03;93.37;99891.09;4931067;29;20159;-71
2023/12/31 04:37:41;;;;;;;0.63;0.63;;;;;;;9.14;93.46;99888.56;4916747;29;20058;-71
2023/12/31 04:40:08;;;;;;;2.55;0.70;;;;;;;9.32;92.23;99894.16;4927756;29;20042;-71
2023/12/31 04:42:33;;;;;;;0.60;0.60;;;;;;;9.34;92.24;99886.50;4927838;29;20039;-71
2023/12/31 04:45:04;;;;;;;0.68;0.68;;;;;;;9.34;91.77;99873.06;4930888;29;20040;-71
2023/12/31 04:47:29;;;;;;;0.40;0.32;;;;;;;9.42;91.55;99874.72;4929945;29;20434;-72
2023/12/31 04:49:55;;;;;;;0.43;0.43;;;;;;;9.37;91.89;99869.69;4933309;29;20122;-71
2023/12/31 04:52:20;;;;;;;1.55;0.70;;;;;;;9.49;91.85;99858.66;4935550;29;20443;-72
2023/12/31 04:54:46;;;;;;;0.40;0.40;;;;;;;9.44;92.31;99861.69;4919361;29;20609;-72
2023/12/31 04:57:11;;;;;;;0.50;0.50;;;;;;;9.40;92.16;99856.28;4938348;29;20103;-72
2023/12/31 04:59:36;;;;;;;0.77;0.77;;;;;;;9.33;92.90;99856.19;4936527;29;20036;-72
2023/12/31 05:02:03;;;;;;;0.60;0.60;;;;;;;9.32;92.98;99853.84;4915051;29;20417;-71
2023/12/31 05:04:28;;;;;;;0.80;0.50;;;;;;;9.46;92.82;99848.66;4929462;29;20467;-71
2023/12/31 05:06:54;;;;;;;0.43;0.43;;;;;;;9.44;92.82;99840.19;4931563;29;20050;-71
2023/12/31 05:09:19;;;;;;;0.40;0.40;;;;;;;9.37;92.23;99840.88;4929596;29;20032;-72
2023/12/31 05:11:45;;;;;;;1.77;0.90;;;;;;;9.21;93.98;99847.59;4960358;28;20419;-71
2023/12/31 05:14:10;;;;;;;0.43;0.43;;;;;;;9.24;94.34;99831.50;4930142;29;20024;-71
2023/12/31 05:16:35;;;;;;;0.60;0.57;;;;;;;9.31;94.39;99830.84;4930769;29;20094;-71
2023/12/31 05:19:01;;;;;;;0.60;0.60;;;;;;;9.40;93.54;99817.88;4911513;29;20066;-72
2023/12/31 05:21:27;;;;;;;2.22;0.80;;;;;;;9.39;93.75;99813.66;4924826;29;20156;-71
2023/12/31 05:23:53;;;;;;;0.75;0.70;;;;;;;9.43;93.67;99812.53;4928862;29;20399;-71
2023/12/31 05:26:19;;;;;;;0.55;0.45;;;;;;;9.43;93.81;99809.84;4929455;29;20050;-74
2023/12/31 05:28:44;;;;;;;0.90;0.70;;;;;;;9.31;94.81;99796.66;4910605;29;20561;-71
2023/12/31 05:31:10;;;;;;;0.50;0.50;;;;;;;9.31;95.90;99791.28;4927134;29;20043;-71
2023/12/31 05:33:36;;;;;;;0.55;0.55;;;;;;;9.31;95.87;99788.59;4930235;29;20032;-71
2023/12/31 05:36:02;;;;;;;0.45;0.45;;;;;;;9.28;96.35;99793.94;4930722;29;20119;-71
2023/12/31 05:38:27;;;;;;;0.65;0.65;;;;;;;9.35;95.98;99789.41;4928996;29;20039;-71
2023/12/31 05:40:52;;;;;;;0.20;0.20;;;;;;;9.31;96.38;99790.53;4931575;29;20036;-71
2023/12/31 05:43:18;;;;;;;2.80;0.50;;;;;;;9.32;96.26;99776.72;4929838;29;20031;-71
2023/12/31 05:45:43;;;;;;;0.85;0.50;;;;;;;9.27;96.65;99768.97;4929122;29;20083;-71
2023/12/31 05:48:09;;;;;;;0.55;0.55;;;;;;;9.37;96.01;99757.59;4926981;28;20076;-72
2023/12/31 05:50:34;;;;;;;0.68;0.68;;;;;;;9.34;96.26;99754.88;4927566;29;20527;-71
2023/12/31 05:53:00;;;;;;;1.85;0.82;;;;;;;9.56;95.11;99738.56;4926688;29;20039;-72
2023/12/31 05:55:25;;;;;;;0.55;0.55;;;;;;;9.38;95.16;99740.34;4929747;29;20091;-71
2023/12/31 05:57:50;;;;;;;4.28;0.70;;;;;;;9.38;95.71;99737.66;4917108;29;20036;-72
2023/12/31 06:00:16;;;;;;;0.60;0.55;;;;;;;9.37;96.20;99727.28;4930865;29;20115;-72
2023/12/31 06:02:42;;;;;;;0.85;0.50;;;;;;;9.38;96.11;99724.22;4933515;29;20123;-71
2023/12/31 06:05:08;;;;;;;0.47;0.47;;;;;;;9.35;96.03;99737.63;4933340;29;20040;-72
2023/12/31 06:07:34;;;;;;;0.55;0.55;;;;;;;9.41;95.56;99752.25;4949630;29;20036;-71
2023/12/31 06:10:00;;;;;;;0.50;0.50;;;;;;;9.51;94.89;99738.13;4912263;29;20051;-72
2023/12/31 06:12:25;;;;;;;0.43;0.43;;;;;;;9.50;95.41;99750.81;4932846;29;20487;-71
2023/12/31 06:14:51;;;;;;;0.43;0.43;;;;;;;9.52;95.13;99745.06;4932398;29;20099;-71
2023/12/31 06:17:17;;;;;;;0.93;0.60;;;;;;;9.50;94.73;99731.22;4935870;29;20031;-72
2023/12/31 06:19:43;;;;;;;0.50;0.50;;;;;;;9.52;94.33;99735.09;4934152;28;20046;-71
2023/12/31 06:22:08;;;;;;;0.65;0.63;;;;;;;9.38;94.53;99728.81;4927514;29;20032;-71
2023/12/31 06:24:34;;;;;;;1.25;0.77;;;;;;;9.27;95.62;99722.56;4932258;29;20083;-72
2023/12/31 06:27:00;;;;;;;0.75;0.65;;;;;;;9.26;94.81;99724.47;4962111;28;20043;-71
2023/12/31 06:29:26;;;;;;;1.10;0.70;;;;;;;9.08;95.71;99726.19;4932883;29;20074;-69
2023/12/31 06:31:51;;;;;;;0.73;0.73;;;;;;;9.14;95.47;99711.28;4928974;29;20060;-71
2023/12/31 06:34:17;;;;;;;0.90;0.68;;;;;;;9.09;94.69;99708.94;4928168;29;20377;-71
2023/12/31 06:36:42;;;;;;;0.82;0.73;;;;;;;9.13;94.77;99706.28;4930486;29;20039;-72
2023/12/31 06:39:09;;;;;;;0.70;0.70;;;;;;;9.01;95.38;99715.38;4913940;29;20118;-71
2023/12/31 06:41:35;;;;;;;2.50;0.85;;;;;;;9.06;95.00;99718.50;4926534;29;20127;-72
2023/12/31 06:44:01;;;;;;;1.48;0.75;;;;;;;9.00;95.34;99719.22;4930591;29;20465;-71
2023/12/31 06:46:26;;;;;;;0.55;0.55;;;;;;;8.97;95.97;99720.72;4916486;29;20123;-71
2023/12/31 06:48:52;;;;;;;0.60;0.60;;;;;;;8.89;95.57;99715.63;4928637;29;20035;-72
2023/12/31 06:51:17;;;;;;;0.40;0.40;;;;;;;8.90;95.90;99709.88;4928454;29;20031;-72
2023/12/31 06:53:43;;;;;;;0.50;0.50;;;;;;;8.91;95.39;99707.97;4914424;29;20479;-72
2023/12/31 06:56:08;;;;;;;3.10;0.60;;;;;;;8.93;94.93;99711.84;4928603;29;20036;-71
2023/12/31 06:58:36;;;;;;;0.63;0.55;;;;;;;8.86;94.60;99698.34;4928972;29;20141;-71
2023/12/31 07:01:02;;;;;;;0.60;0.47;;;;;;;8.80;95.32;99686.38;4914101;29;20043;-72
2023/12/31 07:03:28;;;;;;;1.65;0.60;;;;;;;8.78;95.35;99687.88;4928639;29;20036;-71
2023/12/31 07:05:53;;;;;;;0.93;0.77;;;;;;;8.74;95.70;99670.97;4931764;29;20106;-71
2023/12/31 07:08:19;;;;;;;1.05;0.75;;;;;;;8.65;95.62;99675.84;4930175;28;20499;-71
2023/12/31 07:10:44;;;;;;;0.60;0.60;;;;;;;8.54;96.64;99666.88;4930370;29;20036;-71
2023/12/31 07:13:10;;;;;;;0.60;0.60;;;;;;;8.44;96.79;99668.31;4927630;29;20031;-71
2023/12/31 07:15:38;;;;;;;0.47;0.47;;;;;;;8.63;96.32;99675.44;4927191;29;20130;-72
2023/12/31 07:18:03;;;;;;;1.00;0.57;;;;;;;8.58;95.67;99665.81;4925927;29;20061;-71
2023/12/31 07:20:29;;;;;;;0.47;0.43;;;;;;;8.61;95.49;99665.09;4930295;29;20641;-71
2023/12/31 07:22:54;;;;;;;0.75;0.70;;;;;;;8.55;96.23;99663.84;4932860;29;20514;-71
2023/12/31 07:25:21;;;;;;;0.80;0.80;;;;;;;8.57;95.38;99663.47;4929763;29;20040;-72
2023/12/31 07:27:46;;;;;;;0.80;0.80;;;;;;;8.47;95.89;99669.50;4931969;29;20102;-72
2023/12/31 07:30:12;;;;;;;0.63;0.63;;;;;;;8.50;95.32;99664.16;4928860;29;20032;-71
2023/12/31 07:32:38;;;;;;;0.63;0.63;;;;;;;8.43;96.49;99664.09;4957462;28;20050;-71
2023/12/31 07:35:04;;;;;;;0.40;0.40;;;;;;;8.63;95.14;99662.03;4927452;29;20083;-71
2023/12/31 07:37:30;;;;;;;0.52;0.52;;;;;;;8.57;95.57;99658.13;4923454;29;20050;-72
2023/12/31 07:39:55;;;;;;;1.75;0.93;;;;;;;8.69;94.26;99665.94;4929817;29;20040;-71
2023/12/31 07:42:21;;;;;;;0.55;0.45;;;;;;;8.60;94.72;99668.88;4915172;29;20031;-71
2023/12/31 07:44:46;;;;;;;0.45;0.45;;;;;;;8.49;95.54;99662.63;4914012;29;20043;-72
2023/12/31 07:47:12;;;;;;;1.27;0.88;;;;;;;8.52;95.77;99664.56;4929565;29;20375;-72
2023/12/31 07:49:37;;;;;;;0.50;0.50;;;;;;;8.47;95.25;99667.59;4931058;29;21430;-71
2023/12/31 07:52:03;;;;;;;0.75;0.60;;;;;;;8.43;95.88;99666.75;4932736;29;20043;-71
2023/12/31 07:54:28;;;;;;;2.22;1.00;;;;;;;8.31;95.74;99658.94;4930689;29;20106;-71
2023/12/31 07:56:54;;;;;;;0.57;0.57;;;;;;;8.45;96.10;99661.81;4932584;29;20043;-72
2023/12/31 07:59:20;;;;;;;1.35;0.88;;;;;;;8.55;94.44;99660.41;4931321;29;20427;-71
2023/12/31 08:01:45;;;;;;;2.67;0.73;;;;;;;8.47;95.31;99645.34;4930022;29;20111;-71
2023/12/31 08:04:11;;;;;;;1.15;1.05;;;;;;;8.56;94.57;99640.47;4956185;28;20847;-72
2023/12/31 08:06:36;;;;;;;0.95;0.70;;;;;;;8.25;95.58;99635.47;4928843;29;20031;-72
2023/12/31 08:09:02;;;;;;;0.50;0.43;;;;;;;8.33;95.66;99624.47;4914902;29;20028;-72
2023/12/31 08:11:28;;;;;;;1.15;0.82;;;;;;;8.23;96.31;99628.56;4929212;29;20032;-71
2023/12/31 08:13:54;;;;;;;1.02;0.68;;;;;;;8.35;96.02;99630.25;4936941;29;20807;-72
2023/12/31 08:16:19;;;;;;;2.13;0.98;;;;;;;8.48;95.31;99628.13;4936666;29;20122;-72
2023/12/31 08:18:45;;;;;;;1.67;0.98;;;;;;;8.43;95.03;99626.53;4937915;29;20032;-71
2023/12/31 08:21:11;;;;;;;5.68;1.77;;;;;;;8.42;95.35;99630.34;4938216;29;20063;-72
2023/12/31 08:23:37;;;;;;;0.90;0.50;;;;;;;8.50;94.48;99620.47;4939447;29;20019;-72
2023/12/31 08:26:03;;;;;;;1.08;0.95;;;;;;;8.52;94.65;99613.59;4937749;29;20131;-72
2023/12/31 08:28:29;;;;;;;0.40;0.40;;;;;;;8.34;95.28;99609.94;4930897;29;20048;-72
2023/12/31 08:30:55;;;;;;;1.80;0.90;;;;;;;8.51;96.01;99601.34;4939803;29;20395;-72
2023/12/31 08:33:20;;;;;;;1.48;1.15;;;;;;;8.53;95.74;99588.31;4934179;29;20031;-72
2023/12/31 08:35:46;;;;;;;1.30;0.47;;;;;;;8.54;95.64;99583.72;4935875;29;20043;-71
2023/12/31 08:38:11;;;;;;;0.50;0.50;;;;;;;8.39;95.75;99574.75;4935360;29;20027;-72
2023/12/31 08:40:37;;;;;;;0.60;0.60;;;;;;;8.49;95.88;99576.78;4935751;29;20451;-72
2023/12/31 08:43:03;;;;;;;0.80;0.80;;;;;;;8.59;94.83;99578.81;4930771;29;20035;-71
2023/12/31 08:45:28;;;;;;;0.98;0.57;;;;;;;8.36;96.08;99569.34;4927736;29;20138;-71
2023/12/31 08:47:54;;;;;;;0.65;0.65;;;;;;;8.51;95.17;99579.88;4929578;29;20138;-72
2023/12/31 08:50:21;;;;;;;1.13;0.88;;;;;;;8.44;95.57;99576.34;4928443;29;20047;-71
2023/12/31 08:52:47;;;;;;;0.50;0.50;;;;;;;8.76;94.60;99561.34;4923265;29;20042;-72
2023/12/31 08:55:13;;;;;;;0.40;0.40;;;;;;;8.75;93.89;99563.25;4928175;29;20027;-72
2023/12/31 08:57:44;;;;;;;1.80;0.77;;;;;;;8.77;94.07;99566.31;4927845;29;20169;-71
2023/12/31 09:00:10;;;;;;;0.50;0.50;;;;;;;8.87;93.79;99567.56;4928858;29;20051;-72
2023/12/31 09:02:35;;;;;;;0.55;0.55;;;;;;;8.77;93.79;99555.59;4926456;29;20036;-71
2023/12/31 09:05:01;;;;;;;0.50;0.50;;;;;;;8.92;92.71;99545.78;4927939;29;20423;-71
2023/12/31 09:07:27;;;;;;;3.50;1.10;;;;;;;8.97;92.91;99542.72;4928051;29;20039;-71
2023/12/31 09:09:52;;;;;;;2.60;1.33;;;;;;;8.94;93.12;99536.19;4911151;29;20047;-72
2023/12/31 09:12:18;;;;;;;0.68;0.65;;;;;;;8.82;93.72;99531.13;4925349;29;20174;-72
2023/12/31 09:14:43;;;;;;;0.50;0.45;;;;;;;8.90;93.93;99535.38;4932064;29;20036;-71
2023/12/31 09:17:09;;;;;;;0.40;0.40;;;;;;;9.05;93.16;99531.69;4930262;29;20106;-72
2023/12/31 09:19:35;;;;;;;7.70;1.05;;;;;;;8.96;93.22;99538.50;4927478;29;20027;-71
2023/12/31 09:22:02;;;;;;;0.63;0.60;;;;;;;9.08;92.75;99538.22;4929825;29;20044;-71
2023/12/31 09:24:28;;;;;;;1.95;0.95;;;;;;;9.07;92.05;99534.00;4923644;29;20422;-71
2023/12/31 09:26:54;;;;;;;0.50;0.50;;;;;;;8.82;94.06;99538.38;4924082;29;20066;-71
2023/12/31 09:29:19;;;;;;;0.40;0.40;;;;;;;8.98;93.29;99538.91;4929920;29;20495;-71
2023/12/31 09:31:45;;;;;;;1.65;1.17;;;;;;;9.08;92.46;99533.63;4931810;29;20061;-71
2023/12/31 09:34:10;;;;;;;1.25;0.50;;;;;;;8.97;93.30;99530.09;4956944;28;20038;-71
2023/12/31 09:36:36;;;;;;;0.93;0.75;;;;;;;9.19;92.58;99522.19;4932777;29;20042;-71
2023/12/31 09:39:02;;;;;;;1.00;0.75;;;;;;;9.02;92.83;99528.94;4933408;28;20038;-71
2023/12/31 09:41:28;;;;;;;0.88;0.75;;;;;;;8.96;93.77;99527.78;4928136;29;20191;-71
2023/12/31 09:43:56;;;;;;;1.00;0.52;;;;;;;9.16;93.18;99522.91;4955768;28;20126;-72
2023/12/31 09:46:22;;;;;;;1.60;0.60;;;;;;;9.21;92.24;99512.63;4932092;29;20036;-71
2023/12/31 09:48:52;;;;;;;0.60;0.60;;;;;;;9.16;92.10;99504.13;4949501;29;20067;-71
2023/12/31 09:51:18;;;;;;;1.10;0.60;;;;;;;9.18;92.26;99496.47;4930402;29;20042;-72
2023/12/31 09:53:47;;;;;;;0.57;0.57;;;;;;;9.28;91.94;99499.22;4928161;29;20039;-71
2023/12/31 09:56:16;;;;;;;1.25;0.88;;;;;;;9.04;93.09;99495.22;4925739;29;20042;-71
2023/12/31 09:58:42;;;;;;;0.98;0.73;;;;;;;9.28;92.06;99491.16;4932057;29;20487;-72
2023/12/31 10:01:07;;;;;;;0.50;0.50;;;;;;;9.09;92.40;99478.78;4932029;29;20024;-73
2023/12/31 10:03:33;;;;;;;0.90;0.70;;;;;;;9.12;92.37;99479.94;4934072;29;20050;-71
2023/12/31 10:05:59;;;;;;;0.60;0.60;;;;;;;9.32;91.79;99467.78;4933092;29;20617;-72
2023/12/31 10:08:27;;;;;;;0.65;0.40;;;;;;;9.36;91.47;99476.63;4935213;29;20032;-72
2023/12/31 10:10:55;;;;;;;1.92;1.08;;;;;;;9.12;92.08;99466.50;4932784;29;20054;-72
2023/12/31 10:13:20;;;;;;;0.73;0.73;;;;;;;9.24;92.43;99460.06;4933170;29;20031;-72
2023/12/31 10:15:46;;;;;;;0.85;0.50;;;;;;;9.39;90.83;99467.06;4935154;29;20098;-72
2023/12/31 10:18:11;;;;;;;2.30;0.73;;;;;;;9.43;91.15;99446.34;4932683;29;20043;-72
2023/12/31 10:20:38;;;;;;;0.60;0.60;;;;;;;9.45;91.05;99441.34;4932397;29;20043;-72
2023/12/31 10:23:04;;;;;;;0.45;0.40;;;;;;;9.47;90.91;99447.91;4932138;29;20102;-72
2023/12/31 10:25:30;;;;;;;1.13;0.85;;;;;;;9.35;91.36;99442.84;4931692;29;20107;-73
2023/12/31 10:27:55;;;;;;;0.70;0.70;;;;;;;9.27;91.58;99433.22;4931310;29;20139;-71
2023/12/31 10:30:22;;;;;;;1.73;0.88;;;;;;;9.22;92.24;99428.19;4961551;28;20042;-71
2023/12/31 10:32:48;;;;;;;0.32;0.32;;;;;;;9.33;92.24;99425.59;4931705;29;21163;-71
2023/12/31 10:35:21;;;;;;;0.68;0.68;;;;;;;9.29;92.33;99412.13;4931703;29;20044;-72
2023/12/31 10:37:47;;;;;;;0.80;0.70;;;;;;;9.35;92.03;99417.91;4933861;29;20142;-72
2023/12/31 10:40:20;;;;;;;1.65;0.70;;;;;;;9.53;90.68;99405.31;4931399;29;20130;-71
2023/12/31 10:42:58;;;;;;;0.50;0.50;;;;;;;9.44;90.86;99418.34;4932165;29;20079;-73
2023/12/31 10:45:24;;;;;;;0.52;0.52;;;;;;;9.45;90.97;99425.22;4956510;28;20043;-72
2023/12/31 10:47:56;;;;;;;1.17;0.63;;;;;;;9.40;91.24;99396.84;4934262;29;20036;-71
2023/12/31 10:50:25;;;;;;;1.50;1.08;;;;;;;9.60;90.43;99413.41;4932608;29;20061;-72
2023/12/31 10:52:53;;;;;;;1.35;0.75;;;;;;;9.37;91.51;99386.06;4926150;29;20329;-72
2023/12/31 10:55:20;;;;;;;0.47;0.40;;;;;;;9.32;93.05;99375.69;4928314;29;20110;-72
2023/12/31 10:57:46;;;;;;;0.50;0.50;;;;;;;9.40;93.64;99371.88;4926237;29;20518;-72
2023/12/31 11:00:15;;;;;;;0.43;0.43;;;;;;;9.25;94.58;99362.22;4932427;29;20032;-72
2023/12/31 11:02:43;;;;;;;1.10;0.60;;;;;;;9.29;94.82;99363.00;4931434;29;20499;-72
2023/12/31 11:05:09;;;;;;;2.00;1.30;;;;;;;9.27;95.22;99358.00;4960336;28;20573;-72
2023/12/31 11:07:35;;;;;;;1.00;0.68;;;;;;;9.38;93.90;99353.44;4930559;29;20407;-73
2023/12/31 11:10:02;;;;;;;2.35;0.90;;;;;;;9.14;95.46;99354.09;4930058;29;20040;-72
2023/12/31 11:12:28;;;;;;;5.05;1.52;;;;;;;9.05;96.55;99351.00;4931338;29;20063;-72
2023/12/31 11:15:02;;;;;;;0.70;0.50;;;;;;;9.22;94.70;99347.63;4930216;29;20031;-73
2023/12/31 11:18:03;;;;;;;1.23;0.50;;;;;;;9.32;95.29;99330.00;4931451;29;20039;-74
2023/12/31 11:20:46;;;;;;;0.93;0.60;;;;;;;9.23;95.96;99306.22;4943438;29;20040;-72
2023/12/31 11:23:27;;;;;;;0.50;0.50;;;;;;;9.34;94.55;99319.66;4954940;28;20032;-72
2023/12/31 11:25:53;;;;;;;0.52;0.52;;;;;;;9.21;94.53;99303.13;4928907;29;20406;-72
2023/12/31 11:28:18;;;;;;;1.50;0.70;;;;;;;9.17;95.41;99296.97;4930690;29;20106;-73
2023/12/31 11:30:53;;;;;;;1.25;0.70;;;;;;;9.03;96.79;99295.00;4931266;29;20788;-72
2023/12/31 11:33:25;;;;;;;1.50;1.25;;;;;;;9.08;96.64;99294.63;4926939;29;20042;-71